sensor_id;sensor_type;location;lat;lon;timestamp;P1;durP1;ratioP1;P2;durP2;ratioP2
27013;SDS011;14556;52.222;4.510;2023-06-26T00:01:03;4.95;;;3.55;;
27013;SDS011;14556;52.222;4.510;2023-06-26T00:03:31;4.68;;;3.38;;
27013;SDS011;14556;52.222;4.510;2023-06-26T00:05:59;6.13;;;3.80;;
27013;SDS011;14556;52.222;4.510;2023-06-26T00:08:27;6.82;;;4.25;;
27013;SDS011;14556;52.222;4.510;2023-06-26T00:10:54;5.35;;;3.42;;
27013;SDS011;14556;52.222;4.510;2023-06-26T00:13:21;6.88;;;3.75;;
27013;SDS011;14556;52.222;4.510;2023-06-26T00:15:48;5.03;;;3.70;;
27013;SDS011;14556;52.222;4.510;2023-06-26T00:18:14;4.50;;;3.55;;
27013;SDS011;14556;52.222;4.510;2023-06-26T00:20:41;6.18;;;3.53;;
27013;SDS011;14556;52.222;4.510;2023-06-26T00:23:07;5.63;;;3.85;;
27013;SDS011;14556;52.222;4.510;2023-06-26T00:25:34;5.15;;;3.33;;
27013;SDS011;14556;52.222;4.510;2023-06-26T00:28:01;6.13;;;3.28;;
27013;SDS011;14556;52.222;4.510;2023-06-26T00:30:27;5.63;;;3.60;;
27013;SDS011;14556;52.222;4.510;2023-06-26T00:32:54;8.00;;;3.55;;
27013;SDS011;14556;52.222;4.510;2023-06-26T00:35:21;4.35;;;3.25;;
27013;SDS011;14556;52.222;4.510;2023-06-26T00:37:47;4.07;;;3.28;;
27013;SDS011;14556;52.222;4.510;2023-06-26T00:40:13;4.63;;;3.17;;
27013;SDS011;14556;52.222;4.510;2023-06-26T00:42:41;4.50;;;3.50;;
27013;SDS011;14556;52.222;4.510;2023-06-26T00:45:07;5.60;;;3.50;;
27013;SDS011;14556;52.222;4.510;2023-06-26T00:47:34;5.72;;;3.45;;
27013;SDS011;14556;52.222;4.510;2023-06-26T00:50:01;5.00;;;3.00;;
27013;SDS011;14556;52.222;4.510;2023-06-26T00:52:28;7.03;;;3.25;;
27013;SDS011;14556;52.222;4.510;2023-06-26T00:54:55;6.97;;;2.65;;
27013;SDS011;14556;52.222;4.510;2023-06-26T00:57:22;10.55;;;3.22;;
27013;SDS011;14556;52.222;4.510;2023-06-26T00:59:49;5.32;;;2.80;;
27013;SDS011;14556;52.222;4.510;2023-06-26T01:02:15;5.95;;;3.38;;
27013;SDS011;14556;52.222;4.510;2023-06-26T01:04:50;7.07;;;2.78;;
27013;SDS011;14556;52.222;4.510;2023-06-26T01:07:19;7.70;;;3.10;;
27013;SDS011;14556;52.222;4.510;2023-06-26T01:09:47;5.43;;;3.10;;
27013;SDS011;14556;52.222;4.510;2023-06-26T01:12:15;5.37;;;2.60;;
27013;SDS011;14556;52.222;4.510;2023-06-26T01:14:41;6.03;;;3.23;;
27013;SDS011;14556;52.222;4.510;2023-06-26T01:17:09;7.83;;;2.63;;
27013;SDS011;14556;52.222;4.510;2023-06-26T01:19:41;6.50;;;3.10;;
27013;SDS011;14556;52.222;4.510;2023-06-26T01:24:52;4.82;;;2.92;;
27013;SDS011;14556;52.222;4.510;2023-06-26T01:27:27;6.60;;;2.30;;
27013;SDS011;14556;52.222;4.510;2023-06-26T01:29:59;5.30;;;2.63;;
27013;SDS011;14556;52.222;4.510;2023-06-26T01:32:28;5.30;;;2.43;;
27013;SDS011;14556;52.222;4.510;2023-06-26T01:34:57;5.17;;;2.97;;
27013;SDS011;14556;52.222;4.510;2023-06-26T01:37:23;7.27;;;2.80;;
27013;SDS011;14556;52.222;4.510;2023-06-26T01:39:50;9.38;;;3.08;;
27013;SDS011;14556;52.222;4.510;2023-06-26T01:42:16;5.63;;;3.10;;
27013;SDS011;14556;52.222;4.510;2023-06-26T01:44:46;8.20;;;3.40;;
27013;SDS011;14556;52.222;4.510;2023-06-26T01:47:16;6.23;;;3.17;;
27013;SDS011;14556;52.222;4.510;2023-06-26T01:49:56;6.80;;;3.00;;
27013;SDS011;14556;52.222;4.510;2023-06-26T01:52:49;5.32;;;2.53;;
27013;SDS011;14556;52.222;4.510;2023-06-26T01:55:31;5.60;;;2.80;;
27013;SDS011;14556;52.222;4.510;2023-06-26T01:58:02;6.53;;;2.90;;
27013;SDS011;14556;52.222;4.510;2023-06-26T02:00:29;7.97;;;3.00;;
27013;SDS011;14556;52.222;4.510;2023-06-26T02:02:57;9.17;;;2.87;;
27013;SDS011;14556;52.222;4.510;2023-06-26T02:05:24;9.33;;;3.57;;
27013;SDS011;14556;52.222;4.510;2023-06-26T02:07:51;10.27;;;3.33;;
27013;SDS011;14556;52.222;4.510;2023-06-26T02:10:17;8.73;;;3.13;;
27013;SDS011;14556;52.222;4.510;2023-06-26T02:12:44;5.87;;;3.07;;
27013;SDS011;14556;52.222;4.510;2023-06-26T02:15:10;12.37;;;3.03;;
27013;SDS011;14556;52.222;4.510;2023-06-26T02:17:37;8.00;;;3.17;;
27013;SDS011;14556;52.222;4.510;2023-06-26T02:20:03;7.03;;;3.40;;
27013;SDS011;14556;52.222;4.510;2023-06-26T02:22:30;7.07;;;3.00;;
27013;SDS011;14556;52.222;4.510;2023-06-26T02:24:57;7.57;;;3.10;;
27013;SDS011;14556;52.222;4.510;2023-06-26T02:27:23;10.87;;;3.00;;
27013;SDS011;14556;52.222;4.510;2023-06-26T02:29:50;9.33;;;3.03;;
27013;SDS011;14556;52.222;4.510;2023-06-26T02:32:16;8.37;;;3.57;;
27013;SDS011;14556;52.222;4.510;2023-06-26T02:34:43;6.70;;;3.10;;
27013;SDS011;14556;52.222;4.510;2023-06-26T02:37:09;8.03;;;3.13;;
27013;SDS011;14556;52.222;4.510;2023-06-26T02:39:36;8.73;;;3.67;;
27013;SDS011;14556;52.222;4.510;2023-06-26T02:42:03;6.97;;;3.50;;
27013;SDS011;14556;52.222;4.510;2023-06-26T02:44:30;8.30;;;3.07;;
27013;SDS011;14556;52.222;4.510;2023-06-26T02:46:58;6.97;;;3.13;;
27013;SDS011;14556;52.222;4.510;2023-06-26T02:49:25;9.03;;;3.07;;
27013;SDS011;14556;52.222;4.510;2023-06-26T02:51:52;7.80;;;3.63;;
27013;SDS011;14556;52.222;4.510;2023-06-26T02:54:18;11.10;;;4.13;;
27013;SDS011;14556;52.222;4.510;2023-06-26T02:56:44;11.33;;;3.73;;
27013;SDS011;14556;52.222;4.510;2023-06-26T02:59:13;11.00;;;3.17;;
27013;SDS011;14556;52.222;4.510;2023-06-26T03:01:40;7.87;;;4.13;;
27013;SDS011;14556;52.222;4.510;2023-06-26T03:04:07;7.00;;;2.60;;
27013;SDS011;14556;52.222;4.510;2023-06-26T03:06:34;7.60;;;3.50;;
27013;SDS011;14556;52.222;4.510;2023-06-26T03:09:01;9.23;;;3.37;;
27013;SDS011;14556;52.222;4.510;2023-06-26T03:11:27;8.27;;;2.93;;
27013;SDS011;14556;52.222;4.510;2023-06-26T03:13:54;8.40;;;2.73;;
27013;SDS011;14556;52.222;4.510;2023-06-26T03:16:21;6.60;;;3.37;;
27013;SDS011;14556;52.222;4.510;2023-06-26T03:18:47;6.20;;;3.13;;
27013;SDS011;14556;52.222;4.510;2023-06-26T03:21:14;7.33;;;2.80;;
27013;SDS011;14556;52.222;4.510;2023-06-26T03:23:40;6.97;;;3.33;;
27013;SDS011;14556;52.222;4.510;2023-06-26T03:26:07;7.70;;;3.17;;
27013;SDS011;14556;52.222;4.510;2023-06-26T03:28:33;5.37;;;2.53;;
27013;SDS011;14556;52.222;4.510;2023-06-26T03:31:00;5.93;;;2.50;;
27013;SDS011;14556;52.222;4.510;2023-06-26T03:33:26;7.23;;;2.73;;
27013;SDS011;14556;52.222;4.510;2023-06-26T03:35:53;5.23;;;2.73;;
27013;SDS011;14556;52.222;4.510;2023-06-26T03:38:21;7.63;;;2.73;;
27013;SDS011;14556;52.222;4.510;2023-06-26T03:40:48;5.53;;;2.43;;
27013;SDS011;14556;52.222;4.510;2023-06-26T03:43:16;4.87;;;2.17;;
27013;SDS011;14556;52.222;4.510;2023-06-26T03:45:43;4.73;;;2.70;;
27013;SDS011;14556;52.222;4.510;2023-06-26T03:48:09;3.53;;;1.97;;
27013;SDS011;14556;52.222;4.510;2023-06-26T03:50:36;7.10;;;2.70;;
27013;SDS011;14556;52.222;4.510;2023-06-26T03:53:02;5.07;;;2.33;;
27013;SDS011;14556;52.222;4.510;2023-06-26T03:55:29;3.73;;;2.40;;
27013;SDS011;14556;52.222;4.510;2023-06-26T03:57:55;3.93;;;2.10;;
27013;SDS011;14556;52.222;4.510;2023-06-26T04:00:22;5.43;;;2.10;;
27013;SDS011;14556;52.222;4.510;2023-06-26T04:02:49;6.23;;;2.37;;
27013;SDS011;14556;52.222;4.510;2023-06-26T04:05:17;5.83;;;2.67;;
27013;SDS011;14556;52.222;4.510;2023-06-26T04:07:43;3.57;;;2.17;;
27013;SDS011;14556;52.222;4.510;2023-06-26T04:10:10;7.53;;;2.90;;
27013;SDS011;14556;52.222;4.510;2023-06-26T04:12:37;3.73;;;2.27;;
27013;SDS011;14556;52.222;4.510;2023-06-26T04:15:03;3.20;;;1.70;;
27013;SDS011;14556;52.222;4.510;2023-06-26T04:17:30;4.83;;;2.03;;
27013;SDS011;14556;52.222;4.510;2023-06-26T04:19:56;3.50;;;2.20;;
27013;SDS011;14556;52.222;4.510;2023-06-26T04:22:23;2.80;;;1.23;;
27013;SDS011;14556;52.222;4.510;2023-06-26T04:24:51;3.07;;;1.73;;
27013;SDS011;14556;52.222;4.510;2023-06-26T04:27:18;2.23;;;1.80;;
27013;SDS011;14556;52.222;4.510;2023-06-26T04:29:44;2.27;;;1.60;;
27013;SDS011;14556;52.222;4.510;2023-06-26T04:32:11;3.07;;;1.90;;
27013;SDS011;14556;52.222;4.510;2023-06-26T04:34:37;4.53;;;1.80;;
27013;SDS011;14556;52.222;4.510;2023-06-26T04:37:07;4.37;;;1.97;;
27013;SDS011;14556;52.222;4.510;2023-06-26T04:39:36;4.73;;;1.80;;
27013;SDS011;14556;52.222;4.510;2023-06-26T04:42:05;1.90;;;1.30;;
27013;SDS011;14556;52.222;4.510;2023-06-26T04:44:33;2.80;;;1.33;;
27013;SDS011;14556;52.222;4.510;2023-06-26T04:46:59;2.70;;;1.40;;
27013;SDS011;14556;52.222;4.510;2023-06-26T04:49:26;1.83;;;1.47;;
27013;SDS011;14556;52.222;4.510;2023-06-26T04:51:54;3.60;;;2.00;;
27013;SDS011;14556;52.222;4.510;2023-06-26T04:54:21;3.17;;;1.50;;
27013;SDS011;14556;52.222;4.510;2023-06-26T04:56:48;2.03;;;1.80;;
27013;SDS011;14556;52.222;4.510;2023-06-26T04:59:14;4.13;;;2.20;;
27013;SDS011;14556;52.222;4.510;2023-06-26T05:01:41;2.43;;;1.60;;
27013;SDS011;14556;52.222;4.510;2023-06-26T05:04:08;2.77;;;1.73;;
27013;SDS011;14556;52.222;4.510;2023-06-26T05:06:34;3.73;;;2.00;;
27013;SDS011;14556;52.222;4.510;2023-06-26T05:09:01;2.50;;;1.37;;
27013;SDS011;14556;52.222;4.510;2023-06-26T05:11:27;4.53;;;2.20;;
27013;SDS011;14556;52.222;4.510;2023-06-26T05:13:54;2.97;;;1.70;;
27013;SDS011;14556;52.222;4.510;2023-06-26T05:16:20;4.43;;;2.00;;
27013;SDS011;14556;52.222;4.510;2023-06-26T05:18:47;3.40;;;1.60;;
27013;SDS011;14556;52.222;4.510;2023-06-26T05:21:14;4.40;;;2.17;;
27013;SDS011;14556;52.222;4.510;2023-06-26T05:23:42;3.10;;;2.00;;
27013;SDS011;14556;52.222;4.510;2023-06-26T05:26:13;3.27;;;1.93;;
27013;SDS011;14556;52.222;4.510;2023-06-26T05:28:40;3.20;;;1.73;;
27013;SDS011;14556;52.222;4.510;2023-06-26T05:31:06;2.00;;;1.70;;
27013;SDS011;14556;52.222;4.510;2023-06-26T05:33:34;3.10;;;2.00;;
27013;SDS011;14556;52.222;4.510;2023-06-26T05:36:03;3.70;;;1.93;;
27013;SDS011;14556;52.222;4.510;2023-06-26T05:38:30;3.40;;;2.40;;
27013;SDS011;14556;52.222;4.510;2023-06-26T05:40:57;3.10;;;1.53;;
27013;SDS011;14556;52.222;4.510;2023-06-26T05:43:24;3.43;;;1.70;;
27013;SDS011;14556;52.222;4.510;2023-06-26T05:45:54;3.33;;;1.57;;
27013;SDS011;14556;52.222;4.510;2023-06-26T05:48:22;2.40;;;1.40;;
27013;SDS011;14556;52.222;4.510;2023-06-26T05:50:48;2.00;;;1.33;;
27013;SDS011;14556;52.222;4.510;2023-06-26T05:53:16;5.23;;;1.87;;
27013;SDS011;14556;52.222;4.510;2023-06-26T05:55:42;2.63;;;1.43;;
27013;SDS011;14556;52.222;4.510;2023-06-26T05:58:10;2.23;;;1.40;;
27013;SDS011;14556;52.222;4.510;2023-06-26T06:00:38;2.10;;;1.43;;
27013;SDS011;14556;52.222;4.510;2023-06-26T06:03:06;1.40;;;1.13;;
27013;SDS011;14556;52.222;4.510;2023-06-26T06:05:33;2.73;;;1.20;;
27013;SDS011;14556;52.222;4.510;2023-06-26T06:07:59;2.97;;;1.37;;
27013;SDS011;14556;52.222;4.510;2023-06-26T06:10:26;3.00;;;1.40;;
27013;SDS011;14556;52.222;4.510;2023-06-26T06:12:52;1.67;;;1.20;;
27013;SDS011;14556;52.222;4.510;2023-06-26T06:15:20;4.47;;;1.07;;
27013;SDS011;14556;52.222;4.510;2023-06-26T06:17:47;3.13;;;1.43;;
27013;SDS011;14556;52.222;4.510;2023-06-26T06:20:14;2.43;;;1.10;;
27013;SDS011;14556;52.222;4.510;2023-06-26T06:22:40;1.17;;;0.80;;
27013;SDS011;14556;52.222;4.510;2023-06-26T06:25:07;1.03;;;0.93;;
27013;SDS011;14556;52.222;4.510;2023-06-26T06:27:33;1.90;;;1.10;;
27013;SDS011;14556;52.222;4.510;2023-06-26T06:30:00;1.60;;;1.10;;
27013;SDS011;14556;52.222;4.510;2023-06-26T06:32:27;1.70;;;0.90;;
27013;SDS011;14556;52.222;4.510;2023-06-26T06:34:53;2.90;;;1.13;;
27013;SDS011;14556;52.222;4.510;2023-06-26T06:37:20;2.03;;;1.03;;
27013;SDS011;14556;52.222;4.510;2023-06-26T06:39:46;2.00;;;0.87;;
27013;SDS011;14556;52.222;4.510;2023-06-26T06:42:13;3.97;;;1.20;;
27013;SDS011;14556;52.222;4.510;2023-06-26T06:44:39;1.83;;;0.90;;
27013;SDS011;14556;52.222;4.510;2023-06-26T06:47:06;3.07;;;1.00;;
27013;SDS011;14556;52.222;4.510;2023-06-26T06:49:33;3.87;;;0.90;;
27013;SDS011;14556;52.222;4.510;2023-06-26T06:51:59;4.93;;;0.87;;
27013;SDS011;14556;52.222;4.510;2023-06-26T06:54:26;6.20;;;1.07;;
27013;SDS011;14556;52.222;4.510;2023-06-26T06:56:54;3.50;;;1.20;;
27013;SDS011;14556;52.222;4.510;2023-06-26T06:59:20;3.90;;;1.03;;
27013;SDS011;14556;52.222;4.510;2023-06-26T07:01:47;6.20;;;1.27;;
27013;SDS011;14556;52.222;4.510;2023-06-26T07:04:13;2.17;;;0.87;;
27013;SDS011;14556;52.222;4.510;2023-06-26T07:06:40;3.73;;;0.90;;
27013;SDS011;14556;52.222;4.510;2023-06-26T07:09:06;3.60;;;0.90;;
27013;SDS011;14556;52.222;4.510;2023-06-26T07:11:33;1.67;;;0.90;;
27013;SDS011;14556;52.222;4.510;2023-06-26T07:13:59;4.87;;;1.00;;
27013;SDS011;14556;52.222;4.510;2023-06-26T07:16:26;1.90;;;1.20;;
27013;SDS011;14556;52.222;4.510;2023-06-26T07:18:52;1.87;;;0.90;;
27013;SDS011;14556;52.222;4.510;2023-06-26T07:21:19;4.00;;;1.07;;
27013;SDS011;14556;52.222;4.510;2023-06-26T07:23:46;1.40;;;0.70;;
27013;SDS011;14556;52.222;4.510;2023-06-26T07:26:14;1.57;;;0.90;;
27013;SDS011;14556;52.222;4.510;2023-06-26T07:28:41;3.83;;;1.13;;
27013;SDS011;14556;52.222;4.510;2023-06-26T07:31:07;2.77;;;0.70;;
27013;SDS011;14556;52.222;4.510;2023-06-26T07:33:36;2.07;;;0.90;;
27013;SDS011;14556;52.222;4.510;2023-06-26T07:36:03;3.53;;;0.90;;
27013;SDS011;14556;52.222;4.510;2023-06-26T07:38:29;1.70;;;0.80;;
27013;SDS011;14556;52.222;4.510;2023-06-26T07:40:56;3.03;;;1.40;;
27013;SDS011;14556;52.222;4.510;2023-06-26T07:43:23;2.30;;;0.97;;
27013;SDS011;14556;52.222;4.510;2023-06-26T07:45:50;2.67;;;0.80;;
27013;SDS011;14556;52.222;4.510;2023-06-26T07:48:17;4.80;;;1.30;;
27013;SDS011;14556;52.222;4.510;2023-06-26T07:50:44;4.07;;;1.00;;
27013;SDS011;14556;52.222;4.510;2023-06-26T07:53:11;1.90;;;0.77;;
27013;SDS011;14556;52.222;4.510;2023-06-26T07:55:37;3.27;;;1.03;;
27013;SDS011;14556;52.222;4.510;2023-06-26T07:58:05;2.00;;;1.00;;
27013;SDS011;14556;52.222;4.510;2023-06-26T08:00:31;1.40;;;0.70;;
27013;SDS011;14556;52.222;4.510;2023-06-26T08:02:58;1.60;;;1.00;;
27013;SDS011;14556;52.222;4.510;2023-06-26T08:05:25;3.43;;;1.20;;
27013;SDS011;14556;52.222;4.510;2023-06-26T08:07:52;3.00;;;0.93;;
27013;SDS011;14556;52.222;4.510;2023-06-26T08:10:19;2.43;;;1.43;;
27013;SDS011;14556;52.222;4.510;2023-06-26T08:12:46;2.80;;;0.97;;
27013;SDS011;14556;52.222;4.510;2023-06-26T08:15:13;4.37;;;1.10;;
27013;SDS011;14556;52.222;4.510;2023-06-26T08:17:39;1.27;;;0.97;;
27013;SDS011;14556;52.222;4.510;2023-06-26T08:20:06;3.17;;;1.40;;
27013;SDS011;14556;52.222;4.510;2023-06-26T08:22:34;2.73;;;1.10;;
27013;SDS011;14556;52.222;4.510;2023-06-26T08:25:01;3.43;;;1.30;;
27013;SDS011;14556;52.222;4.510;2023-06-26T08:27:30;2.93;;;1.30;;
27013;SDS011;14556;52.222;4.510;2023-06-26T08:29:56;2.30;;;1.00;;
27013;SDS011;14556;52.222;4.510;2023-06-26T08:32:23;2.93;;;0.87;;
27013;SDS011;14556;52.222;4.510;2023-06-26T08:34:49;1.87;;;1.03;;
27013;SDS011;14556;52.222;4.510;2023-06-26T08:37:17;3.43;;;1.00;;
27013;SDS011;14556;52.222;4.510;2023-06-26T08:39:43;2.20;;;1.17;;
27013;SDS011;14556;52.222;4.510;2023-06-26T08:42:10;3.20;;;1.37;;
27013;SDS011;14556;52.222;4.510;2023-06-26T08:44:36;1.83;;;1.03;;
27013;SDS011;14556;52.222;4.510;2023-06-26T08:47:18;1.83;;;1.00;;
27013;SDS011;14556;52.222;4.510;2023-06-26T08:50:05;2.63;;;1.33;;
27013;SDS011;14556;52.222;4.510;2023-06-26T08:53:09;2.47;;;1.00;;
27013;SDS011;14556;52.222;4.510;2023-06-26T08:55:36;3.27;;;1.10;;
27013;SDS011;14556;52.222;4.510;2023-06-26T08:58:07;2.63;;;0.87;;
27013;SDS011;14556;52.222;4.510;2023-06-26T09:00:34;6.10;;;1.30;;
27013;SDS011;14556;52.222;4.510;2023-06-26T09:03:01;2.77;;;1.20;;
27013;SDS011;14556;52.222;4.510;2023-06-26T09:05:32;4.17;;;1.23;;
27013;SDS011;14556;52.222;4.510;2023-06-26T09:07:58;5.33;;;1.30;;
27013;SDS011;14556;52.222;4.510;2023-06-26T09:10:26;4.23;;;1.53;;
27013;SDS011;14556;52.222;4.510;2023-06-26T09:12:55;3.72;;;1.05;;
27013;SDS011;14556;52.222;4.510;2023-06-26T09:15:23;2.03;;;1.00;;
27013;SDS011;14556;52.222;4.510;2023-06-26T09:17:50;1.70;;;1.10;;
27013;SDS011;14556;52.222;4.510;2023-06-26T09:20:21;2.77;;;1.00;;
27013;SDS011;14556;52.222;4.510;2023-06-26T09:22:48;3.13;;;1.13;;
27013;SDS011;14556;52.222;4.510;2023-06-26T09:25:15;3.23;;;1.17;;
27013;SDS011;14556;52.222;4.510;2023-06-26T09:27:42;3.63;;;1.10;;
27013;SDS011;14556;52.222;4.510;2023-06-26T09:30:10;2.57;;;1.03;;
27013;SDS011;14556;52.222;4.510;2023-06-26T09:32:37;3.20;;;1.08;;
27013;SDS011;14556;52.222;4.510;2023-06-26T09:35:04;3.80;;;1.17;;
27013;SDS011;14556;52.222;4.510;2023-06-26T09:37:31;3.30;;;0.97;;
27013;SDS011;14556;52.222;4.510;2023-06-26T09:39:57;2.73;;;1.00;;
27013;SDS011;14556;52.222;4.510;2023-06-26T09:42:24;4.40;;;1.10;;
27013;SDS011;14556;52.222;4.510;2023-06-26T09:44:50;4.53;;;1.40;;
27013;SDS011;14556;52.222;4.510;2023-06-26T09:47:21;2.20;;;1.13;;
27013;SDS011;14556;52.222;4.510;2023-06-26T09:49:50;2.23;;;1.10;;
27013;SDS011;14556;52.222;4.510;2023-06-26T09:52:18;3.88;;;1.00;;
27013;SDS011;14556;52.222;4.510;2023-06-26T09:54:48;1.17;;;1.08;;
27013;SDS011;14556;52.222;4.510;2023-06-26T09:57:16;6.32;;;1.17;;
27013;SDS011;14556;52.222;4.510;2023-06-26T09:59:44;4.32;;;1.35;;
27013;SDS011;14556;52.222;4.510;2023-06-26T10:02:11;4.32;;;0.90;;
27013;SDS011;14556;52.222;4.510;2023-06-26T10:04:38;2.08;;;0.93;;
27013;SDS011;14556;52.222;4.510;2023-06-26T10:07:06;2.38;;;1.13;;
27013;SDS011;14556;52.222;4.510;2023-06-26T10:09:40;3.40;;;0.93;;
27013;SDS011;14556;52.222;4.510;2023-06-26T10:12:14;1.65;;;1.00;;
27013;SDS011;14556;52.222;4.510;2023-06-26T10:14:48;1.10;;;0.60;;
27013;SDS011;14556;52.222;4.510;2023-06-26T10:17:19;2.00;;;0.90;;
27013;SDS011;14556;52.222;4.510;2023-06-26T10:19:47;5.22;;;1.00;;
27013;SDS011;14556;52.222;4.510;2023-06-26T10:22:16;2.08;;;0.68;;
27013;SDS011;14556;52.222;4.510;2023-06-26T10:24:45;1.42;;;0.90;;
27013;SDS011;14556;52.222;4.510;2023-06-26T10:27:14;4.77;;;1.10;;
27013;SDS011;14556;52.222;4.510;2023-06-26T10:29:44;1.95;;;0.85;;
27013;SDS011;14556;52.222;4.510;2023-06-26T10:32:15;2.03;;;0.75;;
27013;SDS011;14556;52.222;4.510;2023-06-26T10:34:43;6.23;;;1.00;;
27013;SDS011;14556;52.222;4.510;2023-06-26T10:37:11;2.37;;;1.00;;
27013;SDS011;14556;52.222;4.510;2023-06-26T10:39:51;2.47;;;1.10;;
27013;SDS011;14556;52.222;4.510;2023-06-26T10:42:28;1.80;;;0.80;;
27013;SDS011;14556;52.222;4.510;2023-06-26T10:45:11;1.63;;;0.85;;
27013;SDS011;14556;52.222;4.510;2023-06-26T10:47:41;1.70;;;0.80;;
27013;SDS011;14556;52.222;4.510;2023-06-26T10:50:27;1.92;;;1.00;;
27013;SDS011;14556;52.222;4.510;2023-06-26T10:53:16;4.80;;;1.05;;
27013;SDS011;14556;52.222;4.510;2023-06-26T10:55:55;1.75;;;0.63;;
27013;SDS011;14556;52.222;4.510;2023-06-26T10:58:30;3.20;;;0.95;;
27013;SDS011;14556;52.222;4.510;2023-06-26T11:01:13;1.90;;;0.95;;
27013;SDS011;14556;52.222;4.510;2023-06-26T11:03:42;3.35;;;0.82;;
27013;SDS011;14556;52.222;4.510;2023-06-26T11:06:14;3.00;;;1.00;;
27013;SDS011;14556;52.222;4.510;2023-06-26T11:08:46;2.10;;;0.80;;
27013;SDS011;14556;52.222;4.510;2023-06-26T11:11:21;1.88;;;0.77;;
27013;SDS011;14556;52.222;4.510;2023-06-26T11:14:08;3.03;;;0.90;;
27013;SDS011;14556;52.222;4.510;2023-06-26T11:16:36;2.60;;;0.80;;
27013;SDS011;14556;52.222;4.510;2023-06-26T11:19:02;2.80;;;1.10;;
27013;SDS011;14556;52.222;4.510;2023-06-26T11:21:29;1.02;;;0.65;;
27013;SDS011;14556;52.222;4.510;2023-06-26T11:23:58;2.80;;;1.10;;
27013;SDS011;14556;52.222;4.510;2023-06-26T11:26:27;4.10;;;0.93;;
27013;SDS011;14556;52.222;4.510;2023-06-26T11:28:54;2.90;;;1.10;;
27013;SDS011;14556;52.222;4.510;2023-06-26T11:33:53;2.55;;;1.20;;
27013;SDS011;14556;52.222;4.510;2023-06-26T11:36:22;1.85;;;1.05;;
27013;SDS011;14556;52.222;4.510;2023-06-26T11:38:54;2.00;;;0.95;;
27013;SDS011;14556;52.222;4.510;2023-06-26T11:41:23;3.67;;;1.10;;
27013;SDS011;14556;52.222;4.510;2023-06-26T11:43:52;4.03;;;1.10;;
27013;SDS011;14556;52.222;4.510;2023-06-26T11:46:19;4.00;;;0.98;;
27013;SDS011;14556;52.222;4.510;2023-06-26T11:48:47;2.00;;;1.13;;
27013;SDS011;14556;52.222;4.510;2023-06-26T11:51:15;2.70;;;0.90;;
27013;SDS011;14556;52.222;4.510;2023-06-26T11:53:42;3.17;;;1.10;;
27013;SDS011;14556;52.222;4.510;2023-06-26T11:56:10;2.70;;;1.00;;
27013;SDS011;14556;52.222;4.510;2023-06-26T12:01:41;1.58;;;0.82;;
27013;SDS011;14556;52.222;4.510;2023-06-26T12:04:10;4.18;;;1.27;;
27013;SDS011;14556;52.222;4.510;2023-06-26T12:06:38;2.45;;;1.38;;
27013;SDS011;14556;52.222;4.510;2023-06-26T12:09:07;3.70;;;1.27;;
27013;SDS011;14556;52.222;4.510;2023-06-26T12:11:37;2.03;;;1.20;;
27013;SDS011;14556;52.222;4.510;2023-06-26T12:14:06;3.28;;;1.00;;
27013;SDS011;14556;52.222;4.510;2023-06-26T12:16:33;1.77;;;1.00;;
27013;SDS011;14556;52.222;4.510;2023-06-26T12:19:05;4.22;;;1.13;;
27013;SDS011;14556;52.222;4.510;2023-06-26T12:24:00;3.97;;;1.20;;
27013;SDS011;14556;52.222;4.510;2023-06-26T12:26:30;2.97;;;1.30;;
27013;SDS011;14556;52.222;4.510;2023-06-26T12:29:17;1.45;;;0.80;;
27013;SDS011;14556;52.222;4.510;2023-06-26T12:31:49;2.40;;;1.10;;
27013;SDS011;14556;52.222;4.510;2023-06-26T12:34:23;2.63;;;1.20;;
27013;SDS011;14556;52.222;4.510;2023-06-26T12:36:51;2.47;;;1.10;;
27013;SDS011;14556;52.222;4.510;2023-06-26T12:39:19;2.45;;;1.10;;
27013;SDS011;14556;52.222;4.510;2023-06-26T12:41:54;2.10;;;1.00;;
27013;SDS011;14556;52.222;4.510;2023-06-26T12:44:29;3.50;;;1.10;;
27013;SDS011;14556;52.222;4.510;2023-06-26T12:46:57;2.63;;;1.20;;
27013;SDS011;14556;52.222;4.510;2023-06-26T12:49:34;3.05;;;1.13;;
27013;SDS011;14556;52.222;4.510;2023-06-26T12:52:07;2.58;;;1.20;;
27013;SDS011;14556;52.222;4.510;2023-06-26T12:54:36;2.08;;;1.10;;
27013;SDS011;14556;52.222;4.510;2023-06-26T12:57:05;3.60;;;1.15;;
27013;SDS011;14556;52.222;4.510;2023-06-26T12:59:32;4.15;;;1.30;;
27013;SDS011;14556;52.222;4.510;2023-06-26T13:01:59;1.85;;;1.10;;
27013;SDS011;14556;52.222;4.510;2023-06-26T13:04:27;1.27;;;1.00;;
27013;SDS011;14556;52.222;4.510;2023-06-26T13:06:54;3.20;;;1.20;;
27013;SDS011;14556;52.222;4.510;2023-06-26T13:09:24;1.50;;;1.00;;
27013;SDS011;14556;52.222;4.510;2023-06-26T13:11:55;4.47;;;1.35;;
27013;SDS011;14556;52.222;4.510;2023-06-26T13:14:24;2.08;;;1.02;;
27013;SDS011;14556;52.222;4.510;2023-06-26T13:16:50;3.00;;;1.30;;
27013;SDS011;14556;52.222;4.510;2023-06-26T13:19:17;2.30;;;1.20;;
27013;SDS011;14556;52.222;4.510;2023-06-26T13:21:44;3.30;;;1.00;;
27013;SDS011;14556;52.222;4.510;2023-06-26T13:24:11;2.10;;;1.08;;
27013;SDS011;14556;52.222;4.510;2023-06-26T13:26:39;3.88;;;1.23;;
27013;SDS011;14556;52.222;4.510;2023-06-26T13:29:06;1.23;;;1.05;;
27013;SDS011;14556;52.222;4.510;2023-06-26T13:31:32;2.45;;;1.05;;
27013;SDS011;14556;52.222;4.510;2023-06-26T13:33:59;1.65;;;1.15;;
27013;SDS011;14556;52.222;4.510;2023-06-26T13:36:26;3.13;;;1.60;;
27013;SDS011;14556;52.222;4.510;2023-06-26T13:38:53;2.28;;;1.30;;
27013;SDS011;14556;52.222;4.510;2023-06-26T13:41:23;3.72;;;1.45;;
27013;SDS011;14556;52.222;4.510;2023-06-26T13:43:50;1.38;;;0.82;;
27013;SDS011;14556;52.222;4.510;2023-06-26T13:46:18;2.10;;;0.90;;
27013;SDS011;14556;52.222;4.510;2023-06-26T13:48:45;1.60;;;1.27;;
27013;SDS011;14556;52.222;4.510;2023-06-26T13:51:12;1.77;;;1.42;;
27013;SDS011;14556;52.222;4.510;2023-06-26T13:53:39;1.85;;;1.17;;
27013;SDS011;14556;52.222;4.510;2023-06-26T13:56:06;4.10;;;0.90;;
27013;SDS011;14556;52.222;4.510;2023-06-26T13:58:35;2.40;;;1.30;;
27013;SDS011;14556;52.222;4.510;2023-06-26T14:01:03;2.10;;;1.20;;
27013;SDS011;14556;52.222;4.510;2023-06-26T14:03:31;2.22;;;1.20;;
27013;SDS011;14556;52.222;4.510;2023-06-26T14:05:58;4.18;;;1.00;;
27013;SDS011;14556;52.222;4.510;2023-06-26T14:08:25;1.45;;;0.82;;
27013;SDS011;14556;52.222;4.510;2023-06-26T14:10:51;2.28;;;1.17;;
27013;SDS011;14556;52.222;4.510;2023-06-26T14:13:18;1.70;;;1.20;;
27013;SDS011;14556;52.222;4.510;2023-06-26T14:15:49;4.05;;;1.38;;
27013;SDS011;14556;52.222;4.510;2023-06-26T14:18:19;1.02;;;0.90;;
27013;SDS011;14556;52.222;4.510;2023-06-26T14:20:47;1.30;;;1.00;;
27013;SDS011;14556;52.222;4.510;2023-06-26T14:23:14;4.15;;;1.20;;
27013;SDS011;14556;52.222;4.510;2023-06-26T14:25:41;3.67;;;1.20;;
27013;SDS011;14556;52.222;4.510;2023-06-26T14:28:08;3.00;;;1.15;;
27013;SDS011;14556;52.222;4.510;2023-06-26T14:30:34;2.13;;;1.20;;
27013;SDS011;14556;52.222;4.510;2023-06-26T14:33:01;4.43;;;1.10;;
27013;SDS011;14556;52.222;4.510;2023-06-26T14:35:27;1.38;;;1.10;;
27013;SDS011;14556;52.222;4.510;2023-06-26T14:37:54;3.43;;;1.20;;
27013;SDS011;14556;52.222;4.510;2023-06-26T14:40:20;2.90;;;1.00;;
27013;SDS011;14556;52.222;4.510;2023-06-26T14:42:47;3.75;;;1.25;;
27013;SDS011;14556;52.222;4.510;2023-06-26T14:45:14;5.15;;;1.38;;
27013;SDS011;14556;52.222;4.510;2023-06-26T14:47:41;3.08;;;1.40;;
27013;SDS011;14556;52.222;4.510;2023-06-26T14:50:08;1.25;;;1.00;;
27013;SDS011;14556;52.222;4.510;2023-06-26T14:52:35;4.63;;;1.30;;
27013;SDS011;14556;52.222;4.510;2023-06-26T14:55:01;4.53;;;1.25;;
27013;SDS011;14556;52.222;4.510;2023-06-26T14:57:32;2.80;;;1.13;;
27013;SDS011;14556;52.222;4.510;2023-06-26T14:59:58;3.50;;;1.48;;
27013;SDS011;14556;52.222;4.510;2023-06-26T15:02:25;1.65;;;1.17;;
27013;SDS011;14556;52.222;4.510;2023-06-26T15:04:51;2.95;;;1.38;;